sensor_id;sensor_type;location;lat;lon;timestamp;P1;durP1;ratioP1;P2;durP2;ratioP2
49942;SDS011;36011;53.362;58.948;2023-12-29T00:02:24;2.33;;;1.70;;
49942;SDS011;36011;53.362;58.948;2023-12-29T00:05:28;2.95;;;1.60;;
49942;SDS011;36011;53.362;58.948;2023-12-29T00:08:31;2.33;;;1.85;;
49942;SDS011;36011;53.362;58.948;2023-12-29T00:11:35;2.00;;;1.80;;
49942;SDS011;36011;53.362;58.948;2023-12-29T00:14:39;2.95;;;1.83;;
49942;SDS011;36011;53.362;58.948;2023-12-29T00:17:41;2.00;;;1.63;;
49942;SDS011;36011;53.362;58.948;2023-12-29T00:20:42;3.38;;;1.83;;
49942;SDS011;36011;53.362;58.948;2023-12-29T00:26:49;2.95;;;1.88;;
49942;SDS011;36011;53.362;58.948;2023-12-29T00:29:56;3.90;;;1.70;;
49942;SDS011;36011;53.362;58.948;2023-12-29T00:32:57;2.58;;;1.75;;
49942;SDS011;36011;53.362;58.948;2023-12-29T00:35:59;3.10;;;1.35;;
49942;SDS011;36011;53.362;58.948;2023-12-29T00:42:04;2.42;;;1.98;;
49942;SDS011;36011;53.362;58.948;2023-12-29T00:45:11;2.17;;;1.38;;
49942;SDS011;36011;53.362;58.948;2023-12-29T00:51:15;2.30;;;2.00;;
49942;SDS011;36011;53.362;58.948;2023-12-29T00:54:22;3.35;;;1.73;;
49942;SDS011;36011;53.362;58.948;2023-12-29T00:57:26;2.28;;;1.33;;
49942;SDS011;36011;53.362;58.948;2023-12-29T01:00:30;1.67;;;1.52;;
49942;SDS011;36011;53.362;58.948;2023-12-29T01:06:35;2.67;;;1.75;;
49942;SDS011;36011;53.362;58.948;2023-12-29T01:09:38;2.10;;;1.55;;
49942;SDS011;36011;53.362;58.948;2023-12-29T01:12:43;3.95;;;2.13;;
49942;SDS011;36011;53.362;58.948;2023-12-29T01:15:49;2.63;;;1.80;;
49942;SDS011;36011;53.362;58.948;2023-12-29T01:18:53;2.50;;;1.45;;
49942;SDS011;36011;53.362;58.948;2023-12-29T01:21:57;1.55;;;1.13;;
49942;SDS011;36011;53.362;58.948;2023-12-29T01:24:59;2.00;;;1.50;;
49942;SDS011;36011;53.362;58.948;2023-12-29T01:28:02;3.10;;;2.03;;
49942;SDS011;36011;53.362;58.948;2023-12-29T01:31:06;1.65;;;1.48;;
49942;SDS011;36011;53.362;58.948;2023-12-29T01:34:11;1.67;;;1.35;;
49942;SDS011;36011;53.362;58.948;2023-12-29T01:37:15;2.65;;;1.80;;
49942;SDS011;36011;53.362;58.948;2023-12-29T01:40:17;2.65;;;1.88;;
49942;SDS011;36011;53.362;58.948;2023-12-29T01:43:21;1.45;;;1.35;;
49942;SDS011;36011;53.362;58.948;2023-12-29T01:46:28;3.08;;;2.10;;
49942;SDS011;36011;53.362;58.948;2023-12-29T01:49:33;3.67;;;2.00;;
49942;SDS011;36011;53.362;58.948;2023-12-29T01:52:36;2.10;;;1.75;;
49942;SDS011;36011;53.362;58.948;2023-12-29T01:55:38;3.63;;;1.77;;
49942;SDS011;36011;53.362;58.948;2023-12-29T01:58:43;2.05;;;1.50;;
49942;SDS011;36011;53.362;58.948;2023-12-29T02:01:46;2.53;;;1.80;;
49942;SDS011;36011;53.362;58.948;2023-12-29T02:04:48;2.45;;;1.67;;
49942;SDS011;36011;53.362;58.948;2023-12-29T02:07:51;3.58;;;2.00;;
49942;SDS011;36011;53.362;58.948;2023-12-29T02:10:56;2.67;;;2.05;;
49942;SDS011;36011;53.362;58.948;2023-12-29T02:14:01;2.72;;;1.75;;
49942;SDS011;36011;53.362;58.948;2023-12-29T02:17:10;3.47;;;1.77;;
49942;SDS011;36011;53.362;58.948;2023-12-29T02:20:29;2.75;;;2.03;;
49942;SDS011;36011;53.362;58.948;2023-12-29T02:23:34;2.65;;;2.15;;
49942;SDS011;36011;53.362;58.948;2023-12-29T02:26:40;2.28;;;1.88;;
49942;SDS011;36011;53.362;58.948;2023-12-29T02:29:52;3.15;;;2.00;;
49942;SDS011;36011;53.362;58.948;2023-12-29T02:33:07;3.15;;;2.35;;
49942;SDS011;36011;53.362;58.948;2023-12-29T02:36:13;3.40;;;1.73;;
49942;SDS011;36011;53.362;58.948;2023-12-29T02:39:19;1.77;;;1.50;;
49942;SDS011;36011;53.362;58.948;2023-12-29T02:42:26;2.10;;;1.90;;
49942;SDS011;36011;53.362;58.948;2023-12-29T02:48:35;3.08;;;1.80;;
49942;SDS011;36011;53.362;58.948;2023-12-29T02:51:37;1.88;;;1.67;;
49942;SDS011;36011;53.362;58.948;2023-12-29T02:54:43;3.38;;;2.50;;
49942;SDS011;36011;53.362;58.948;2023-12-29T02:57:44;3.67;;;2.58;;
49942;SDS011;36011;53.362;58.948;2023-12-29T03:00:48;2.13;;;1.90;;
49942;SDS011;36011;53.362;58.948;2023-12-29T03:03:50;3.72;;;2.50;;
49942;SDS011;36011;53.362;58.948;2023-12-29T03:09:55;2.75;;;2.40;;
49942;SDS011;36011;53.362;58.948;2023-12-29T03:12:59;4.22;;;2.47;;
49942;SDS011;36011;53.362;58.948;2023-12-29T03:16:02;2.28;;;2.08;;
49942;SDS011;36011;53.362;58.948;2023-12-29T03:19:03;3.35;;;2.42;;
49942;SDS011;36011;53.362;58.948;2023-12-29T03:22:07;3.58;;;2.53;;
49942;SDS011;36011;53.362;58.948;2023-12-29T03:25:13;2.67;;;2.33;;
49942;SDS011;36011;53.362;58.948;2023-12-29T03:28:20;3.42;;;2.42;;
49942;SDS011;36011;53.362;58.948;2023-12-29T03:31:26;3.53;;;2.55;;
49942;SDS011;36011;53.362;58.948;2023-12-29T03:34:27;3.40;;;2.78;;
49942;SDS011;36011;53.362;58.948;2023-12-29T03:37:33;3.53;;;2.75;;
49942;SDS011;36011;53.362;58.948;2023-12-29T03:40:37;3.97;;;2.78;;
49942;SDS011;36011;53.362;58.948;2023-12-29T03:43:43;3.40;;;2.53;;
49942;SDS011;36011;53.362;58.948;2023-12-29T03:46:47;4.35;;;2.80;;
49942;SDS011;36011;53.362;58.948;2023-12-29T03:49:48;4.55;;;2.97;;
49942;SDS011;36011;53.362;58.948;2023-12-29T03:52:57;4.53;;;3.15;;
49942;SDS011;36011;53.362;58.948;2023-12-29T03:55:58;2.78;;;2.13;;
49942;SDS011;36011;53.362;58.948;2023-12-29T03:59:00;2.70;;;2.33;;
49942;SDS011;36011;53.362;58.948;2023-12-29T04:02:01;5.20;;;3.10;;
49942;SDS011;36011;53.362;58.948;2023-12-29T04:05:06;3.80;;;2.97;;
49942;SDS011;36011;53.362;58.948;2023-12-29T04:08:16;3.22;;;2.67;;
49942;SDS011;36011;53.362;58.948;2023-12-29T04:11:20;3.75;;;2.53;;
49942;SDS011;36011;53.362;58.948;2023-12-29T04:14:24;7.28;;;3.50;;
49942;SDS011;36011;53.362;58.948;2023-12-29T04:17:25;3.53;;;2.47;;
49942;SDS011;36011;53.362;58.948;2023-12-29T04:20:27;3.58;;;3.03;;
49942;SDS011;36011;53.362;58.948;2023-12-29T04:23:31;3.65;;;2.55;;
49942;SDS011;36011;53.362;58.948;2023-12-29T04:26:36;4.20;;;3.10;;
49942;SDS011;36011;53.362;58.948;2023-12-29T04:29:39;2.70;;;2.33;;
49942;SDS011;36011;53.362;58.948;2023-12-29T04:32:44;4.97;;;2.90;;
49942;SDS011;36011;53.362;58.948;2023-12-29T04:35:46;4.15;;;2.42;;
49942;SDS011;36011;53.362;58.948;2023-12-29T04:38:48;3.08;;;2.58;;
49942;SDS011;36011;53.362;58.948;2023-12-29T04:41:52;3.28;;;2.47;;
49942;SDS011;36011;53.362;58.948;2023-12-29T04:44:56;7.55;;;3.35;;
49942;SDS011;36011;53.362;58.948;2023-12-29T04:51:11;5.35;;;2.70;;
49942;SDS011;36011;53.362;58.948;2023-12-29T04:54:14;2.13;;;1.80;;
49942;SDS011;36011;53.362;58.948;2023-12-29T04:57:23;3.65;;;2.30;;
49942;SDS011;36011;53.362;58.948;2023-12-29T05:00:32;4.90;;;2.20;;
49942;SDS011;36011;53.362;58.948;2023-12-29T05:03:38;3.30;;;2.33;;
49942;SDS011;36011;53.362;58.948;2023-12-29T05:06:42;3.88;;;2.80;;
49942;SDS011;36011;53.362;58.948;2023-12-29T05:09:47;4.53;;;3.30;;
49942;SDS011;36011;53.362;58.948;2023-12-29T05:12:48;3.75;;;2.70;;
49942;SDS011;36011;53.362;58.948;2023-12-29T05:18:54;5.70;;;3.35;;
49942;SDS011;36011;53.362;58.948;2023-12-29T05:21:59;5.20;;;2.95;;
49942;SDS011;36011;53.362;58.948;2023-12-29T05:25:01;5.72;;;3.55;;
49942;SDS011;36011;53.362;58.948;2023-12-29T05:28:07;3.05;;;2.75;;
49942;SDS011;36011;53.362;58.948;2023-12-29T05:31:13;4.78;;;3.45;;
49942;SDS011;36011;53.362;58.948;2023-12-29T05:34:18;3.70;;;3.08;;
49942;SDS011;36011;53.362;58.948;2023-12-29T05:37:22;6.13;;;2.65;;
49942;SDS011;36011;53.362;58.948;2023-12-29T05:40:26;5.82;;;3.28;;
49942;SDS011;36011;53.362;58.948;2023-12-29T05:43:27;3.60;;;3.03;;
49942;SDS011;36011;53.362;58.948;2023-12-29T05:46:29;3.20;;;2.90;;
49942;SDS011;36011;53.362;58.948;2023-12-29T05:49:32;3.45;;;2.42;;
49942;SDS011;36011;53.362;58.948;2023-12-29T05:52:38;2.55;;;1.85;;
49942;SDS011;36011;53.362;58.948;2023-12-29T05:55:42;3.03;;;2.33;;
49942;SDS011;36011;53.362;58.948;2023-12-29T05:58:47;2.95;;;2.40;;
49942;SDS011;36011;53.362;58.948;2023-12-29T06:01:53;4.13;;;3.15;;
49942;SDS011;36011;53.362;58.948;2023-12-29T06:04:56;3.83;;;2.60;;
49942;SDS011;36011;53.362;58.948;2023-12-29T06:07:58;4.95;;;3.65;;
49942;SDS011;36011;53.362;58.948;2023-12-29T06:11:02;6.78;;;3.10;;
49942;SDS011;36011;53.362;58.948;2023-12-29T06:14:04;3.30;;;2.88;;
49942;SDS011;36011;53.362;58.948;2023-12-29T06:17:10;6.45;;;2.38;;
49942;SDS011;36011;53.362;58.948;2023-12-29T06:20:11;3.80;;;3.00;;
49942;SDS011;36011;53.362;58.948;2023-12-29T06:23:15;4.13;;;2.15;;
49942;SDS011;36011;53.362;58.948;2023-12-29T06:26:21;3.92;;;3.10;;
49942;SDS011;36011;53.362;58.948;2023-12-29T06:29:25;5.05;;;2.65;;
49942;SDS011;36011;53.362;58.948;2023-12-29T06:32:32;5.22;;;3.25;;
49942;SDS011;36011;53.362;58.948;2023-12-29T06:35:35;4.13;;;2.30;;
49942;SDS011;36011;53.362;58.948;2023-12-29T06:38:39;3.78;;;2.55;;
49942;SDS011;36011;53.362;58.948;2023-12-29T06:44:46;3.40;;;2.58;;
49942;SDS011;36011;53.362;58.948;2023-12-29T06:47:48;3.88;;;2.42;;
49942;SDS011;36011;53.362;58.948;2023-12-29T06:50:52;2.22;;;1.88;;
49942;SDS011;36011;53.362;58.948;2023-12-29T06:53:56;4.07;;;2.60;;
49942;SDS011;36011;53.362;58.948;2023-12-29T06:56:57;2.28;;;1.88;;
49942;SDS011;36011;53.362;58.948;2023-12-29T07:00:01;2.72;;;2.20;;
49942;SDS011;36011;53.362;58.948;2023-12-29T07:03:05;4.80;;;3.03;;
49942;SDS011;36011;53.362;58.948;2023-12-29T07:06:07;2.78;;;2.10;;
49942;SDS011;36011;53.362;58.948;2023-12-29T07:09:10;3.67;;;2.50;;
49942;SDS011;36011;53.362;58.948;2023-12-29T07:12:11;3.40;;;2.33;;
49942;SDS011;36011;53.362;58.948;2023-12-29T07:15:15;2.55;;;2.00;;
49942;SDS011;36011;53.362;58.948;2023-12-29T07:18:16;3.65;;;2.50;;
49942;SDS011;36011;53.362;58.948;2023-12-29T07:21:21;2.75;;;2.30;;
49942;SDS011;36011;53.362;58.948;2023-12-29T07:24:27;7.25;;;3.35;;
49942;SDS011;36011;53.362;58.948;2023-12-29T07:27:34;7.55;;;3.40;;
49942;SDS011;36011;53.362;58.948;2023-12-29T07:30:38;4.72;;;2.80;;
49942;SDS011;36011;53.362;58.948;2023-12-29T07:33:42;4.88;;;3.13;;
49942;SDS011;36011;53.362;58.948;2023-12-29T07:36:45;5.25;;;2.90;;
49942;SDS011;36011;53.362;58.948;2023-12-29T07:39:47;3.88;;;2.35;;
49942;SDS011;36011;53.362;58.948;2023-12-29T07:42:51;4.22;;;2.88;;
49942;SDS011;36011;53.362;58.948;2023-12-29T07:45:52;5.07;;;2.50;;
49942;SDS011;36011;53.362;58.948;2023-12-29T07:48:59;4.72;;;2.90;;
49942;SDS011;36011;53.362;58.948;2023-12-29T07:52:03;4.65;;;2.85;;
49942;SDS011;36011;53.362;58.948;2023-12-29T07:55:11;5.75;;;2.47;;
49942;SDS011;36011;53.362;58.948;2023-12-29T07:58:19;7.65;;;3.72;;
49942;SDS011;36011;53.362;58.948;2023-12-29T08:01:21;10.82;;;4.78;;
49942;SDS011;36011;53.362;58.948;2023-12-29T08:04:25;10.00;;;4.50;;
49942;SDS011;36011;53.362;58.948;2023-12-29T08:07:26;19.70;;;7.65;;
49942;SDS011;36011;53.362;58.948;2023-12-29T08:10:33;12.40;;;4.07;;
49942;SDS011;36011;53.362;58.948;2023-12-29T08:13:36;10.73;;;4.40;;
49942;SDS011;36011;53.362;58.948;2023-12-29T08:16:41;12.45;;;5.63;;
49942;SDS011;36011;53.362;58.948;2023-12-29T08:19:45;12.25;;;5.88;;
49942;SDS011;36011;53.362;58.948;2023-12-29T08:22:46;6.78;;;2.60;;
49942;SDS011;36011;53.362;58.948;2023-12-29T08:25:48;2.25;;;2.05;;
49942;SDS011;36011;53.362;58.948;2023-12-29T08:28:52;1.33;;;1.23;;
49942;SDS011;36011;53.362;58.948;2023-12-29T08:31:55;3.75;;;2.45;;
49942;SDS011;36011;53.362;58.948;2023-12-29T08:35:00;3.78;;;1.98;;
49942;SDS011;36011;53.362;58.948;2023-12-29T08:38:06;2.53;;;1.95;;
49942;SDS011;36011;53.362;58.948;2023-12-29T08:41:15;5.65;;;2.97;;
49942;SDS011;36011;53.362;58.948;2023-12-29T08:44:19;5.05;;;1.92;;
49942;SDS011;36011;53.362;58.948;2023-12-29T08:47:25;6.38;;;3.20;;
49942;SDS011;36011;53.362;58.948;2023-12-29T08:50:33;4.25;;;2.50;;
49942;SDS011;36011;53.362;58.948;2023-12-29T08:53:39;2.88;;;2.10;;
49942;SDS011;36011;53.362;58.948;2023-12-29T08:56:47;2.28;;;1.63;;
49942;SDS011;36011;53.362;58.948;2023-12-29T08:59:48;2.67;;;1.70;;
49942;SDS011;36011;53.362;58.948;2023-12-29T09:02:52;6.80;;;3.17;;
49942;SDS011;36011;53.362;58.948;2023-12-29T09:05:55;3.22;;;2.00;;
49942;SDS011;36011;53.362;58.948;2023-12-29T09:09:04;3.55;;;2.65;;
49942;SDS011;36011;53.362;58.948;2023-12-29T09:12:08;3.55;;;2.70;;
49942;SDS011;36011;53.362;58.948;2023-12-29T09:15:14;5.00;;;2.88;;
49942;SDS011;36011;53.362;58.948;2023-12-29T09:18:21;4.65;;;3.30;;
49942;SDS011;36011;53.362;58.948;2023-12-29T09:21:24;3.17;;;2.17;;
49942;SDS011;36011;53.362;58.948;2023-12-29T09:24:28;5.40;;;3.10;;
49942;SDS011;36011;53.362;58.948;2023-12-29T09:27:30;3.35;;;2.42;;
49942;SDS011;36011;53.362;58.948;2023-12-29T09:30:34;3.63;;;2.60;;
49942;SDS011;36011;53.362;58.948;2023-12-29T09:33:35;5.13;;;3.00;;
49942;SDS011;36011;53.362;58.948;2023-12-29T09:36:38;3.53;;;2.90;;
49942;SDS011;36011;53.362;58.948;2023-12-29T09:39:39;4.85;;;3.05;;
49942;SDS011;36011;53.362;58.948;2023-12-29T09:42:44;5.75;;;3.55;;
49942;SDS011;36011;53.362;58.948;2023-12-29T09:45:47;6.95;;;3.72;;
49942;SDS011;36011;53.362;58.948;2023-12-29T09:48:54;5.22;;;3.28;;
49942;SDS011;36011;53.362;58.948;2023-12-29T09:52:09;5.70;;;3.53;;
49942;SDS011;36011;53.362;58.948;2023-12-29T09:55:16;3.42;;;2.33;;
49942;SDS011;36011;53.362;58.948;2023-12-29T09:58:21;6.00;;;3.13;;
49942;SDS011;36011;53.362;58.948;2023-12-29T10:01:28;6.80;;;3.67;;
49942;SDS011;36011;53.362;58.948;2023-12-29T10:04:31;4.88;;;3.13;;
49942;SDS011;36011;53.362;58.948;2023-12-29T10:07:39;2.42;;;1.90;;
49942;SDS011;36011;53.362;58.948;2023-12-29T10:10:45;2.00;;;1.77;;
49942;SDS011;36011;53.362;58.948;2023-12-29T10:13:55;2.50;;;1.48;;
49942;SDS011;36011;53.362;58.948;2023-12-29T10:17:07;2.20;;;1.67;;
49942;SDS011;36011;53.362;58.948;2023-12-29T10:20:21;3.40;;;1.38;;
49942;SDS011;36011;53.362;58.948;2023-12-29T10:23:36;5.47;;;2.35;;
49942;SDS011;36011;53.362;58.948;2023-12-29T10:26:45;4.82;;;2.40;;
49942;SDS011;36011;53.362;58.948;2023-12-29T10:29:47;2.88;;;2.20;;
49942;SDS011;36011;53.362;58.948;2023-12-29T10:32:51;7.32;;;3.28;;
49942;SDS011;36011;53.362;58.948;2023-12-29T10:35:57;3.88;;;2.88;;
49942;SDS011;36011;53.362;58.948;2023-12-29T10:39:06;2.72;;;2.03;;
49942;SDS011;36011;53.362;58.948;2023-12-29T10:42:10;7.13;;;4.07;;
49942;SDS011;36011;53.362;58.948;2023-12-29T10:45:14;4.47;;;3.40;;
49942;SDS011;36011;53.362;58.948;2023-12-29T10:48:22;6.05;;;3.75;;
49942;SDS011;36011;53.362;58.948;2023-12-29T10:51:27;7.10;;;3.85;;
49942;SDS011;36011;53.362;58.948;2023-12-29T10:54:31;8.25;;;4.38;;
49942;SDS011;36011;53.362;58.948;2023-12-29T10:57:37;8.02;;;4.38;;
49942;SDS011;36011;53.362;58.948;2023-12-29T11:00:41;6.38;;;4.28;;
49942;SDS011;36011;53.362;58.948;2023-12-29T11:03:48;9.57;;;5.07;;
49942;SDS011;36011;53.362;58.948;2023-12-29T11:07:07;7.25;;;3.72;;
49942;SDS011;36011;53.362;58.948;2023-12-29T11:10:17;4.68;;;3.60;;
49942;SDS011;36011;53.362;58.948;2023-12-29T11:13:20;8.20;;;3.88;;
49942;SDS011;36011;53.362;58.948;2023-12-29T11:16:22;4.03;;;2.70;;
49942;SDS011;36011;53.362;58.948;2023-12-29T11:19:27;5.90;;;2.97;;
49942;SDS011;36011;53.362;58.948;2023-12-29T11:22:32;5.57;;;3.42;;
49942;SDS011;36011;53.362;58.948;2023-12-29T11:25:39;3.88;;;2.38;;
49942;SDS011;36011;53.362;58.948;2023-12-29T11:28:46;7.63;;;4.47;;
49942;SDS011;36011;53.362;58.948;2023-12-29T11:31:49;6.68;;;4.05;;
49942;SDS011;36011;53.362;58.948;2023-12-29T11:34:56;3.60;;;2.15;;
49942;SDS011;36011;53.362;58.948;2023-12-29T11:38:15;3.53;;;2.17;;
49942;SDS011;36011;53.362;58.948;2023-12-29T11:44:27;2.50;;;2.15;;
49942;SDS011;36011;53.362;58.948;2023-12-29T11:47:34;1.85;;;1.55;;
49942;SDS011;36011;53.362;58.948;2023-12-29T11:50:39;3.03;;;2.80;;
49942;SDS011;36011;53.362;58.948;2023-12-29T11:53:43;4.05;;;2.30;;
49942;SDS011;36011;53.362;58.948;2023-12-29T11:56:50;2.85;;;2.50;;
49942;SDS011;36011;53.362;58.948;2023-12-29T11:59:59;4.50;;;2.75;;
49942;SDS011;36011;53.362;58.948;2023-12-29T12:03:12;6.30;;;3.85;;
49942;SDS011;36011;53.362;58.948;2023-12-29T12:06:21;3.05;;;2.72;;
49942;SDS011;36011;53.362;58.948;2023-12-29T12:09:41;6.30;;;3.55;;
49942;SDS011;36011;53.362;58.948;2023-12-29T12:12:43;3.88;;;3.20;;
49942;SDS011;36011;53.362;58.948;2023-12-29T12:15:45;5.97;;;3.60;;
49942;SDS011;36011;53.362;58.948;2023-12-29T12:18:47;7.63;;;4.13;;
49942;SDS011;36011;53.362;58.948;2023-12-29T12:21:49;8.70;;;4.57;;
49942;SDS011;36011;53.362;58.948;2023-12-29T12:24:59;11.07;;;4.88;;
49942;SDS011;36011;53.362;58.948;2023-12-29T12:28:04;6.15;;;2.90;;
49942;SDS011;36011;53.362;58.948;2023-12-29T12:31:07;9.35;;;4.60;;
49942;SDS011;36011;53.362;58.948;2023-12-29T12:34:15;5.10;;;4.25;;
49942;SDS011;36011;53.362;58.948;2023-12-29T12:37:22;7.45;;;4.40;;
49942;SDS011;36011;53.362;58.948;2023-12-29T12:40:27;9.45;;;5.45;;
49942;SDS011;36011;53.362;58.948;2023-12-29T12:43:33;6.82;;;4.78;;
49942;SDS011;36011;53.362;58.948;2023-12-29T12:46:44;4.35;;;3.25;;
49942;SDS011;36011;53.362;58.948;2023-12-29T12:49:50;5.00;;;3.83;;
49942;SDS011;36011;53.362;58.948;2023-12-29T12:52:55;5.80;;;2.42;;
49942;SDS011;36011;53.362;58.948;2023-12-29T12:56:01;4.57;;;3.55;;
49942;SDS011;36011;53.362;58.948;2023-12-29T12:59:06;5.97;;;3.50;;
49942;SDS011;36011;53.362;58.948;2023-12-29T13:02:10;4.00;;;3.35;;
49942;SDS011;36011;53.362;58.948;2023-12-29T13:05:15;2.40;;;1.92;;
49942;SDS011;36011;53.362;58.948;2023-12-29T13:08:17;5.22;;;3.65;;
49942;SDS011;36011;53.362;58.948;2023-12-29T13:11:24;5.50;;;3.33;;
49942;SDS011;36011;53.362;58.948;2023-12-29T13:14:30;7.68;;;3.92;;
49942;SDS011;36011;53.362;58.948;2023-12-29T13:17:34;6.80;;;4.55;;
49942;SDS011;36011;53.362;58.948;2023-12-29T13:20:46;4.82;;;3.40;;
49942;SDS011;36011;53.362;58.948;2023-12-29T13:23:50;7.50;;;4.10;;
49942;SDS011;36011;53.362;58.948;2023-12-29T13:27:01;7.18;;;3.80;;
49942;SDS011;36011;53.362;58.948;2023-12-29T13:30:06;8.18;;;5.25;;
49942;SDS011;36011;53.362;58.948;2023-12-29T13:33:12;6.38;;;3.88;;
49942;SDS011;36011;53.362;58.948;2023-12-29T13:39:51;4.15;;;3.15;;
49942;SDS011;36011;53.362;58.948;2023-12-29T13:43:02;4.90;;;2.45;;
49942;SDS011;36011;53.362;58.948;2023-12-29T13:46:10;3.75;;;2.35;;
49942;SDS011;36011;53.362;58.948;2023-12-29T13:49:18;6.47;;;3.50;;
49942;SDS011;36011;53.362;58.948;2023-12-29T13:52:20;7.25;;;3.22;;
49942;SDS011;36011;53.362;58.948;2023-12-29T13:55:26;3.40;;;2.80;;
49942;SDS011;36011;53.362;58.948;2023-12-29T13:58:32;4.93;;;3.55;;
49942;SDS011;36011;53.362;58.948;2023-12-29T14:01:36;3.30;;;2.63;;
49942;SDS011;36011;53.362;58.948;2023-12-29T14:04:44;5.13;;;3.53;;
49942;SDS011;36011;53.362;58.948;2023-12-29T14:07:54;7.30;;;3.05;;
49942;SDS011;36011;53.362;58.948;2023-12-29T14:11:09;4.72;;;2.22;;
49942;SDS011;36011;53.362;58.948;2023-12-29T14:14:22;8.25;;;4.07;;
49942;SDS011;36011;53.362;58.948;2023-12-29T14:20:34;4.10;;;2.88;;
49942;SDS011;36011;53.362;58.948;2023-12-29T14:23:41;10.00;;;3.78;;
49942;SDS011;36011;53.362;58.948;2023-12-29T14:29:57;5.53;;;3.42;;
49942;SDS011;36011;53.362;58.948;2023-12-29T14:32:59;5.82;;;2.30;;
49942;SDS011;36011;53.362;58.948;2023-12-29T14:36:00;4.53;;;3.30;;
49942;SDS011;36011;53.362;58.948;2023-12-29T14:42:09;5.10;;;2.63;;
49942;SDS011;36011;53.362;58.948;2023-12-29T14:45:14;4.18;;;3.25;;
49942;SDS011;36011;53.362;58.948;2023-12-29T14:48:16;2.73;;;2.53;;
49942;SDS011;36011;53.362;58.948;2023-12-29T14:51:24;2.40;;;2.13;;
49942;SDS011;36011;53.362;58.948;2023-12-29T14:54:31;2.80;;;2.00;;
49942;SDS011;36011;53.362;58.948;2023-12-29T14:57:36;3.15;;;2.83;;
49942;SDS011;36011;53.362;58.948;2023-12-29T15:00:45;4.35;;;2.80;;
49942;SDS011;36011;53.362;58.948;2023-12-29T15:03:50;2.60;;;1.63;;
49942;SDS011;36011;53.362;58.948;2023-12-29T15:06:57;4.35;;;3.03;;
49942;SDS011;36011;53.362;58.948;2023-12-29T15:09:59;1.70;;;1.60;;
49942;SDS011;36011;53.362;58.948;2023-12-29T15:13:06;3.70;;;2.00;;
49942;SDS011;36011;53.362;58.948;2023-12-29T15:16:08;3.28;;;2.75;;
49942;SDS011;36011;53.362;58.948;2023-12-29T15:19:13;4.45;;;2.80;;
49942;SDS011;36011;53.362;58.948;2023-12-29T15:22:21;3.30;;;2.55;;
49942;SDS011;36011;53.362;58.948;2023-12-29T15:25:32;2.25;;;1.35;;
49942;SDS011;36011;53.362;58.948;2023-12-29T15:28:38;3.45;;;2.60;;
49942;SDS011;36011;53.362;58.948;2023-12-29T15:31:42;3.05;;;2.22;;
49942;SDS011;36011;53.362;58.948;2023-12-29T15:34:48;3.40;;;2.50;;
49942;SDS011;36011;53.362;58.948;2023-12-29T15:37:53;2.60;;;2.22;;
49942;SDS011;36011;53.362;58.948;2023-12-29T15:40:57;3.17;;;2.78;;
49942;SDS011;36011;53.362;58.948;2023-12-29T15:44:01;4.80;;;3.03;;
49942;SDS011;36011;53.362;58.948;2023-12-29T15:47:07;5.20;;;3.55;;
49942;SDS011;36011;53.362;58.948;2023-12-29T15:53:13;5.55;;;3.53;;
49942;SDS011;36011;53.362;58.948;2023-12-29T15:56:20;3.92;;;3.28;;
49942;SDS011;36011;53.362;58.948;2023-12-29T15:59:24;3.60;;;2.70;;
49942;SDS011;36011;53.362;58.948;2023-12-29T16:02:26;6.97;;;3.20;;
49942;SDS011;36011;53.362;58.948;2023-12-29T16:05:30;4.50;;;2.45;;
49942;SDS011;36011;53.362;58.948;2023-12-29T16:08:37;4.90;;;3.08;;
49942;SDS011;36011;53.362;58.948;2023-12-29T16:11:40;6.22;;;2.95;;
49942;SDS011;36011;53.362;58.948;2023-12-29T16:17:48;2.25;;;2.08;;
49942;SDS011;36011;53.362;58.948;2023-12-29T16:20:56;3.10;;;2.53;;
49942;SDS011;36011;53.362;58.948;2023-12-29T16:24:00;6.97;;;4.00;;
49942;SDS011;36011;53.362;58.948;2023-12-29T16:27:07;7.95;;;4.53;;
49942;SDS011;36011;53.362;58.948;2023-12-29T16:30:14;3.40;;;2.90;;
49942;SDS011;36011;53.362;58.948;2023-12-29T16:33:15;5.72;;;3.60;;
49942;SDS011;36011;53.362;58.948;2023-12-29T16:36:19;9.90;;;5.25;;
49942;SDS011;36011;53.362;58.948;2023-12-29T16:39:21;8.00;;;4.07;;
49942;SDS011;36011;53.362;58.948;2023-12-29T16:42:25;6.53;;;4.00;;
49942;SDS011;36011;53.362;58.948;2023-12-29T16:45:31;7.93;;;4.35;;
49942;SDS011;36011;53.362;58.948;2023-12-29T16:48:34;7.05;;;4.13;;
49942;SDS011;36011;53.362;58.948;2023-12-29T16:51:45;5.45;;;3.20;;
49942;SDS011;36011;53.362;58.948;2023-12-29T16:54:52;4.07;;;2.97;;
49942;SDS011;36011;53.362;58.948;2023-12-29T16:57:56;3.72;;;3.05;;
49942;SDS011;36011;53.362;58.948;2023-12-29T17:01:03;2.92;;;2.70;;
49942;SDS011;36011;53.362;58.948;2023-12-29T17:04:09;5.25;;;3.25;;
49942;SDS011;36011;53.362;58.948;2023-12-29T17:07:13;4.45;;;3.00;;
49942;SDS011;36011;53.362;58.948;2023-12-29T17:10:17;2.63;;;2.42;;
49942;SDS011;36011;53.362;58.948;2023-12-29T17:13:19;4.13;;;2.78;;
49942;SDS011;36011;53.362;58.948;2023-12-29T17:16:22;3.00;;;2.57;;
49942;SDS011;36011;53.362;58.948;2023-12-29T17:19:30;4.63;;;3.25;;
49942;SDS011;36011;53.362;58.948;2023-12-29T17:25:37;3.40;;;2.78;;
49942;SDS011;36011;53.362;58.948;2023-12-29T17:31:45;3.58;;;3.15;;
49942;SDS011;36011;53.362;58.948;2023-12-29T17:34:47;6.35;;;4.35;;
49942;SDS011;36011;53.362;58.948;2023-12-29T17:37:54;5.40;;;3.40;;
49942;SDS011;36011;53.362;58.948;2023-12-29T17:41:03;4.88;;;3.28;;
49942;SDS011;36011;53.362;58.948;2023-12-29T17:44:10;5.60;;;3.75;;
49942;SDS011;36011;53.362;58.948;2023-12-29T17:47:11;5.22;;;3.47;;
49942;SDS011;36011;53.362;58.948;2023-12-29T17:50:16;6.70;;;3.33;;
49942;SDS011;36011;53.362;58.948;2023-12-29T17:53:22;3.92;;;2.20;;
49942;SDS011;36011;53.362;58.948;2023-12-29T17:56:23;3.80;;;2.65;;
49942;SDS011;36011;53.362;58.948;2023-12-29T17:59:27;5.35;;;3.58;;
49942;SDS011;36011;53.362;58.948;2023-12-29T18:02:34;3.47;;;2.33;;
49942;SDS011;36011;53.362;58.948;2023-12-29T18:05:38;4.38;;;2.95;;
49942;SDS011;36011;53.362;58.948;2023-12-29T18:08:41;4.32;;;2.63;;
49942;SDS011;36011;53.362;58.948;2023-12-29T18:11:45;4.15;;;2.55;;
49942;SDS011;36011;53.362;58.948;2023-12-29T18:14:52;4.10;;;2.70;;
49942;SDS011;36011;53.362;58.948;2023-12-29T18:17:54;2.97;;;2.65;;
49942;SDS011;36011;53.362;58.948;2023-12-29T18:20:55;2.10;;;1.15;;
49942;SDS011;36011;53.362;58.948;2023-12-29T18:24:04;2.58;;;1.92;;
49942;SDS011;36011;53.362;58.948;2023-12-29T18:27:06;3.23;;;2.83;;
49942;SDS011;36011;53.362;58.948;2023-12-29T18:30:07;2.78;;;1.73;;
49942;SDS011;36011;53.362;58.948;2023-12-29T18:33:09;1.85;;;1.75;;
49942;SDS011;36011;53.362;58.948;2023-12-29T18:39:14;5.57;;;2.60;;
49942;SDS011;36011;53.362;58.948;2023-12-29T18:42:16;3.28;;;2.40;;
49942;SDS011;36011;53.362;58.948;2023-12-29T18:45:20;1.90;;;1.58;;
49942;SDS011;36011;53.362;58.948;2023-12-29T18:48:21;2.05;;;1.83;;
49942;SDS011;36011;53.362;58.948;2023-12-29T18:51:25;2.75;;;1.75;;
49942;SDS011;36011;53.362;58.948;2023-12-29T18:54:29;4.03;;;2.72;;
49942;SDS011;36011;53.362;58.948;2023-12-29T18:57:35;2.75;;;2.13;;
49942;SDS011;36011;53.362;58.948;2023-12-29T19:00:42;2.72;;;2.03;;
49942;SDS011;36011;53.362;58.948;2023-12-29T19:03:44;4.55;;;2.60;;
49942;SDS011;36011;53.362;58.948;2023-12-29T19:06:48;3.67;;;1.98;;
49942;SDS011;36011;53.362;58.948;2023-12-29T19:09:52;2.63;;;2.08;;
49942;SDS011;36011;53.362;58.948;2023-12-29T19:12:56;4.68;;;2.83;;
49942;SDS011;36011;53.362;58.948;2023-12-29T19:15:59;3.80;;;2.35;;